sensor_id;sensor_type;location;lat;lon;timestamp;P1;durP1;ratioP1;P2;durP2;ratioP2
6077;SDS011;3067;49.470;10.394;2023-08-12T15:42:48;1.80;;;1.73;;
6077;SDS011;3067;49.470;10.394;2023-08-12T15:45:15;1.98;;;1.88;;
6077;SDS011;3067;49.470;10.394;2023-08-12T15:47:42;2.03;;;1.73;;
6077;SDS011;3067;49.470;10.394;2023-08-12T15:50:10;1.90;;;1.80;;
6077;SDS011;3067;49.470;10.394;2023-08-12T15:52:37;7.90;;;2.10;;
6077;SDS011;3067;49.470;10.394;2023-08-12T15:57:32;4.10;;;1.50;;
6077;SDS011;3067;49.470;10.394;2023-08-12T16:00:00;2.38;;;1.98;;
6077;SDS011;3067;49.470;10.394;2023-08-12T16:02:30;2.05;;;1.95;;
6077;SDS011;3067;49.470;10.394;2023-08-12T16:04:58;2.83;;;1.58;;
6077;SDS011;3067;49.470;10.394;2023-08-12T16:07:25;2.13;;;1.97;;
6077;SDS011;3067;49.470;10.394;2023-08-12T16:09:52;2.90;;;1.90;;
6077;SDS011;3067;49.470;10.394;2023-08-12T16:12:19;2.03;;;1.93;;
6077;SDS011;3067;49.470;10.394;2023-08-12T16:14:46;2.27;;;2.07;;
6077;SDS011;3067;49.470;10.394;2023-08-12T16:17:15;3.00;;;2.33;;
6077;SDS011;3067;49.470;10.394;2023-08-12T16:19:42;2.30;;;2.20;;
6077;SDS011;3067;49.470;10.394;2023-08-12T16:22:10;3.97;;;2.63;;
6077;SDS011;3067;49.470;10.394;2023-08-12T16:24:38;4.00;;;2.00;;
6077;SDS011;3067;49.470;10.394;2023-08-12T16:27:05;2.50;;;2.40;;
6077;SDS011;3067;49.470;10.394;2023-08-12T16:29:32;2.33;;;2.23;;
6077;SDS011;3067;49.470;10.394;2023-08-12T16:31:59;2.97;;;2.33;;
6077;SDS011;3067;49.470;10.394;2023-08-12T16:34:28;3.70;;;2.30;;
6077;SDS011;3067;49.470;10.394;2023-08-12T16:36:55;1.97;;;1.90;;
6077;SDS011;3067;49.470;10.394;2023-08-12T16:39:22;3.43;;;2.20;;
6077;SDS011;3067;49.470;10.394;2023-08-12T16:41:50;5.83;;;2.03;;
6077;SDS011;3067;49.470;10.394;2023-08-12T16:44:17;4.83;;;1.90;;
6077;SDS011;3067;49.470;10.394;2023-08-12T16:46:44;3.43;;;2.20;;
6077;SDS011;3067;49.470;10.394;2023-08-12T16:49:11;2.43;;;2.27;;
6077;SDS011;3067;49.470;10.394;2023-08-12T16:51:40;2.30;;;2.20;;
6077;SDS011;3067;49.470;10.394;2023-08-12T16:54:07;2.20;;;2.10;;
6077;SDS011;3067;49.470;10.394;2023-08-12T16:56:34;2.53;;;2.23;;
6077;SDS011;3067;49.470;10.394;2023-08-12T16:59:01;5.17;;;2.03;;
6077;SDS011;3067;49.470;10.394;2023-08-12T17:01:28;4.50;;;2.37;;
6077;SDS011;3067;49.470;10.394;2023-08-12T17:03:56;2.50;;;2.30;;
6077;SDS011;3067;49.470;10.394;2023-08-12T17:12:43;2.47;;;2.27;;
6077;SDS011;3067;49.470;10.394;2023-08-12T17:15:10;4.43;;;2.30;;
6077;SDS011;3067;49.470;10.394;2023-08-12T17:20:59;5.37;;;2.07;;
6077;SDS011;3067;49.470;10.394;2023-08-12T17:23:28;2.20;;;2.10;;
6077;SDS011;3067;49.470;10.394;2023-08-12T17:25:55;2.40;;;2.30;;
6077;SDS011;3067;49.470;10.394;2023-08-12T17:28:26;3.13;;;2.73;;
6077;SDS011;3067;49.470;10.394;2023-08-12T17:30:53;3.23;;;3.00;;
6077;SDS011;3067;49.470;10.394;2023-08-12T17:33:20;3.93;;;2.40;;
6077;SDS011;3067;49.470;10.394;2023-08-12T17:35:50;5.40;;;2.37;;
6077;SDS011;3067;49.470;10.394;2023-08-12T17:38:20;2.37;;;2.27;;
6077;SDS011;3067;49.470;10.394;2023-08-12T17:41:05;2.53;;;2.40;;
6077;SDS011;3067;49.470;10.394;2023-08-12T17:43:32;6.17;;;2.47;;
6077;SDS011;3067;49.470;10.394;2023-08-12T17:45:59;2.80;;;2.60;;
6077;SDS011;3067;49.470;10.394;2023-08-12T17:48:26;3.10;;;2.80;;
6077;SDS011;3067;49.470;10.394;2023-08-12T17:50:53;2.60;;;2.37;;
6077;SDS011;3067;49.470;10.394;2023-08-12T17:53:20;2.87;;;2.40;;
6077;SDS011;3067;49.470;10.394;2023-08-12T17:55:47;4.37;;;2.30;;
6077;SDS011;3067;49.470;10.394;2023-08-12T17:58:16;2.37;;;2.27;;
6077;SDS011;3067;49.470;10.394;2023-08-12T18:00:43;6.63;;;2.90;;
6077;SDS011;3067;49.470;10.394;2023-08-12T18:03:10;5.83;;;2.90;;
6077;SDS011;3067;49.470;10.394;2023-08-12T18:05:51;2.70;;;2.60;;
6077;SDS011;3067;49.470;10.394;2023-08-12T18:11:23;3.70;;;3.40;;
6077;SDS011;3067;49.470;10.394;2023-08-12T18:13:53;3.57;;;3.47;;
6077;SDS011;3067;49.470;10.394;2023-08-12T18:19:26;5.47;;;3.43;;
6077;SDS011;3067;49.470;10.394;2023-08-12T18:21:53;3.20;;;3.00;;
6077;SDS011;3067;49.470;10.394;2023-08-12T18:24:21;4.00;;;3.57;;
6077;SDS011;3067;49.470;10.394;2023-08-12T18:26:48;3.70;;;3.40;;
6077;SDS011;3067;49.470;10.394;2023-08-12T18:32:17;5.53;;;3.43;;
6077;SDS011;3067;49.470;10.394;2023-08-12T18:34:47;3.40;;;3.20;;
6077;SDS011;3067;49.470;10.394;2023-08-12T18:37:14;6.40;;;3.30;;
6077;SDS011;3067;49.470;10.394;2023-08-12T18:39:41;6.60;;;3.50;;
6077;SDS011;3067;49.470;10.394;2023-08-12T18:42:08;8.27;;;3.30;;
6077;SDS011;3067;49.470;10.394;2023-08-12T18:44:37;8.47;;;3.40;;
6077;SDS011;3067;49.470;10.394;2023-08-12T18:50:25;3.60;;;3.30;;
6077;SDS011;3067;49.470;10.394;2023-08-12T18:53:01;4.13;;;3.40;;
6077;SDS011;3067;49.470;10.394;2023-08-12T18:55:31;14.37;;;10.07;;
6077;SDS011;3067;49.470;10.394;2023-08-12T18:58:01;5.07;;;4.13;;
6077;SDS011;3067;49.470;10.394;2023-08-12T19:00:28;3.67;;;3.43;;
6077;SDS011;3067;49.470;10.394;2023-08-12T19:29:07;4.50;;;4.10;;
6077;SDS011;3067;49.470;10.394;2023-08-12T19:31:55;5.20;;;4.80;;
6077;SDS011;3067;49.470;10.394;2023-08-12T19:34:24;5.27;;;4.90;;
6077;SDS011;3067;49.470;10.394;2023-08-12T19:36:51;5.00;;;4.70;;
6077;SDS011;3067;49.470;10.394;2023-08-12T19:39:18;14.13;;;5.53;;
6077;SDS011;3067;49.470;10.394;2023-08-12T19:44:41;6.13;;;5.60;;
6077;SDS011;3067;49.470;10.394;2023-08-12T19:47:08;6.03;;;5.53;;
6077;SDS011;3067;49.470;10.394;2023-08-12T19:49:36;6.20;;;5.70;;
6077;SDS011;3067;49.470;10.394;2023-08-12T19:52:03;6.10;;;5.50;;
6077;SDS011;3067;49.470;10.394;2023-08-12T19:54:31;5.70;;;5.30;;
6077;SDS011;3067;49.470;10.394;2023-08-12T20:06:23;5.30;;;5.00;;
6077;SDS011;3067;49.470;10.394;2023-08-12T20:08:50;5.30;;;4.90;;
6077;SDS011;3067;49.470;10.394;2023-08-12T20:11:17;5.30;;;5.00;;
6077;SDS011;3067;49.470;10.394;2023-08-12T20:13:44;5.50;;;4.93;;
6077;SDS011;3067;49.470;10.394;2023-08-12T20:16:11;6.10;;;4.83;;
6077;SDS011;3067;49.470;10.394;2023-08-12T20:18:39;5.30;;;5.00;;
6077;SDS011;3067;49.470;10.394;2023-08-12T20:21:06;5.20;;;4.80;;
6077;SDS011;3067;49.470;10.394;2023-08-12T20:23:34;5.43;;;4.87;;
6077;SDS011;3067;49.470;10.394;2023-08-12T20:26:01;5.73;;;5.23;;
6077;SDS011;3067;49.470;10.394;2023-08-12T20:28:30;6.67;;;5.83;;
6077;SDS011;3067;49.470;10.394;2023-08-12T20:30:57;8.20;;;5.50;;
6077;SDS011;3067;49.470;10.394;2023-08-12T20:33:24;5.40;;;5.07;;
6077;SDS011;3067;49.470;10.394;2023-08-12T20:35:51;5.60;;;5.20;;
6077;SDS011;3067;49.470;10.394;2023-08-12T20:38:18;6.07;;;5.57;;
6077;SDS011;3067;49.470;10.394;2023-08-12T20:40:47;6.10;;;4.97;;
6077;SDS011;3067;49.470;10.394;2023-08-12T20:43:15;6.20;;;5.60;;
6077;SDS011;3067;49.470;10.394;2023-08-12T20:45:45;5.90;;;5.30;;
6077;SDS011;3067;49.470;10.394;2023-08-12T20:48:12;5.60;;;5.10;;
6077;SDS011;3067;49.470;10.394;2023-08-12T20:50:41;5.90;;;5.30;;
6077;SDS011;3067;49.470;10.394;2023-08-12T20:53:08;6.27;;;5.67;;
6077;SDS011;3067;49.470;10.394;2023-08-12T20:55:35;5.50;;;4.93;;
6077;SDS011;3067;49.470;10.394;2023-08-12T20:58:04;6.40;;;5.10;;
6077;SDS011;3067;49.470;10.394;2023-08-12T21:00:32;9.93;;;5.67;;
6077;SDS011;3067;49.470;10.394;2023-08-12T21:02:59;9.90;;;5.10;;
6077;SDS011;3067;49.470;10.394;2023-08-12T21:05:26;5.40;;;4.90;;
6077;SDS011;3067;49.470;10.394;2023-08-12T21:07:53;6.80;;;4.60;;
6077;SDS011;3067;49.470;10.394;2023-08-12T21:10:20;6.30;;;5.33;;
6077;SDS011;3067;49.470;10.394;2023-08-12T21:12:48;5.73;;;5.13;;
6077;SDS011;3067;49.470;10.394;2023-08-12T21:15:16;7.43;;;5.10;;
6077;SDS011;3067;49.470;10.394;2023-08-12T21:17:43;5.30;;;4.80;;
6077;SDS011;3067;49.470;10.394;2023-08-12T21:20:11;8.90;;;5.33;;
6077;SDS011;3067;49.470;10.394;2023-08-12T21:22:38;7.27;;;4.67;;
6077;SDS011;3067;49.470;10.394;2023-08-12T21:25:07;5.37;;;4.87;;
6077;SDS011;3067;49.470;10.394;2023-08-12T21:27:35;8.93;;;4.97;;
6077;SDS011;3067;49.470;10.394;2023-08-12T21:30:02;5.10;;;4.40;;
6077;SDS011;3067;49.470;10.394;2023-08-12T21:32:31;5.87;;;4.50;;
6077;SDS011;3067;49.470;10.394;2023-08-12T21:34:58;4.90;;;4.50;;
6077;SDS011;3067;49.470;10.394;2023-08-12T21:37:28;4.90;;;4.40;;
6077;SDS011;3067;49.470;10.394;2023-08-12T21:39:58;4.83;;;4.43;;
6077;SDS011;3067;49.470;10.394;2023-08-12T21:42:25;9.97;;;4.73;;
6077;SDS011;3067;49.470;10.394;2023-08-12T21:44:52;5.40;;;4.90;;
6077;SDS011;3067;49.470;10.394;2023-08-12T21:47:20;6.00;;;4.60;;
6077;SDS011;3067;49.470;10.394;2023-08-12T21:49:48;7.63;;;5.40;;
6077;SDS011;3067;49.470;10.394;2023-08-12T21:52:16;11.13;;;5.80;;
6077;SDS011;3067;49.470;10.394;2023-08-12T21:54:43;9.50;;;5.27;;
6077;SDS011;3067;49.470;10.394;2023-08-12T21:57:13;7.23;;;5.10;;
6077;SDS011;3067;49.470;10.394;2023-08-12T21:59:43;5.90;;;5.23;;
6077;SDS011;3067;49.470;10.394;2023-08-12T22:02:10;5.13;;;4.83;;
6077;SDS011;3067;49.470;10.394;2023-08-12T22:04:37;5.17;;;4.77;;
6077;SDS011;3067;49.470;10.394;2023-08-12T22:07:09;7.20;;;4.80;;
6077;SDS011;3067;49.470;10.394;2023-08-12T22:09:37;6.30;;;5.30;;
6077;SDS011;3067;49.470;10.394;2023-08-12T22:12:04;6.17;;;5.40;;
6077;SDS011;3067;49.470;10.394;2023-08-12T22:14:32;8.60;;;5.30;;
6077;SDS011;3067;49.470;10.394;2023-08-12T22:17:00;6.30;;;5.70;;
6077;SDS011;3067;49.470;10.394;2023-08-12T22:19:30;6.27;;;5.40;;
6077;SDS011;3067;49.470;10.394;2023-08-12T22:21:58;6.33;;;5.40;;
6077;SDS011;3067;49.470;10.394;2023-08-12T22:24:28;6.10;;;5.20;;
6077;SDS011;3067;49.470;10.394;2023-08-12T22:26:56;5.07;;;4.53;;
6077;SDS011;3067;49.470;10.394;2023-08-12T22:29:24;6.30;;;4.90;;
6077;SDS011;3067;49.470;10.394;2023-08-12T22:31:51;6.07;;;5.20;;
6077;SDS011;3067;49.470;10.394;2023-08-12T22:34:24;6.93;;;4.80;;
6077;SDS011;3067;49.470;10.394;2023-08-12T22:36:52;5.33;;;4.93;;
6077;SDS011;3067;49.470;10.394;2023-08-12T22:39:18;9.80;;;4.70;;
6077;SDS011;3067;49.470;10.394;2023-08-12T22:41:53;5.40;;;4.70;;
6077;SDS011;3067;49.470;10.394;2023-08-12T22:44:26;7.33;;;4.70;;
6077;SDS011;3067;49.470;10.394;2023-08-12T22:46:53;5.30;;;4.40;;
6077;SDS011;3067;49.470;10.394;2023-08-12T22:49:23;9.27;;;4.73;;
6077;SDS011;3067;49.470;10.394;2023-08-12T22:51:54;9.07;;;5.20;;
6077;SDS011;3067;49.470;10.394;2023-08-12T22:54:21;5.63;;;5.10;;
6077;SDS011;3067;49.470;10.394;2023-08-12T22:56:52;7.33;;;4.90;;
6077;SDS011;3067;49.470;10.394;2023-08-12T22:59:19;10.63;;;4.63;;
6077;SDS011;3067;49.470;10.394;2023-08-12T23:01:46;5.37;;;4.80;;
6077;SDS011;3067;49.470;10.394;2023-08-12T23:04:14;4.90;;;4.50;;
6077;SDS011;3067;49.470;10.394;2023-08-12T23:06:44;5.40;;;4.90;;
6077;SDS011;3067;49.470;10.394;2023-08-12T23:09:11;19.90;;;4.70;;
6077;SDS011;3067;49.470;10.394;2023-08-12T23:11:38;5.27;;;4.70;;
6077;SDS011;3067;49.470;10.394;2023-08-12T23:14:07;5.90;;;5.00;;
6077;SDS011;3067;49.470;10.394;2023-08-12T23:16:34;5.47;;;4.77;;
6077;SDS011;3067;49.470;10.394;2023-08-12T23:19:02;6.37;;;4.90;;
6077;SDS011;3067;49.470;10.394;2023-08-12T23:21:29;5.10;;;4.70;;
6077;SDS011;3067;49.470;10.394;2023-08-12T23:23:56;7.80;;;4.90;;
6077;SDS011;3067;49.470;10.394;2023-08-12T23:26:24;5.33;;;4.77;;
6077;SDS011;3067;49.470;10.394;2023-08-12T23:28:51;6.00;;;4.70;;
6077;SDS011;3067;49.470;10.394;2023-08-12T23:31:35;4.73;;;4.40;;
6077;SDS011;3067;49.470;10.394;2023-08-12T23:34:02;5.53;;;3.87;;
6077;SDS011;3067;49.470;10.394;2023-08-12T23:36:29;4.10;;;3.80;;
6077;SDS011;3067;49.470;10.394;2023-08-12T23:38:58;5.23;;;4.20;;
6077;SDS011;3067;49.470;10.394;2023-08-12T23:41:26;5.53;;;4.20;;
6077;SDS011;3067;49.470;10.394;2023-08-12T23:43:56;4.23;;;3.70;;
6077;SDS011;3067;49.470;10.394;2023-08-12T23:46:23;8.13;;;4.13;;
6077;SDS011;3067;49.470;10.394;2023-08-12T23:48:54;4.00;;;3.80;;
6077;SDS011;3067;49.470;10.394;2023-08-12T23:51:24;3.87;;;3.67;;
6077;SDS011;3067;49.470;10.394;2023-08-12T23:56:29;6.27;;;4.07;;
6077;SDS011;3067;49.470;10.394;2023-08-12T23:58:58;10.67;;;4.00;;
